Time,TemperatureF,DewpointF,PressureIn,WindDirection,WindDirectionDegrees,WindSpeedMPH,WindSpeedGustMPH,Humidity,HourlyPrecipIn,Conditions,Clouds,dailyrainin,SoftwareType,DateUTC
2013-03-18 00:00:00,37.0,37.0,30.25,East,90,10.4,10.4,100,0.00,CLR,SKC,0.00,WeatherDisplay:10.37,2013-03-18 04:00:00,
2013-03-18 00:05:00,37.0,37.0,30.25,ENE,67,10.4,10.4,100,0.00,CLR,SKC,0.00,WeatherDisplay:10.37,2013-03-18 04:05:00,
2013-03-18 00:10:00,37.0,37.0,30.24,NE,45,10.4,10.4,100,0.00,CLR,SKC,0.00,WeatherDisplay:10.37,2013-03-18 04:10:00,
2013-03-18 00:15:00,37.0,37.0,30.24,NNE,22,9.2,9.2,100,0.00,,SKC,0.00,WeatherDisplay:10.37,2013-03-18 04:15:00,
2013-03-18 00:20:00,37.0,37.0,30.24,NNE,22,10.4,10.4,100,0.00,CLR,SKC,0.00,WeatherDisplay:10.37,2013-03-18 04:20:00,
2013-03-18 00:25:00,37.0,37.0,30.24,NE,45,10.4,10.4,100,0.01,RA,SKC,0.01,WeatherDisplay:10.37,2013-03-18 04:25:00,
2013-03-18 00:30:00,37.0,37.0,30.24,ENE,67,10.4,10.4,100,0.01,RA,SKC,0.01,WeatherDisplay:10.37,2013-03-18 04:30:00,
2013-03-18 00:35:00,37.0,37.0,30.24,ENE,67,9.2,9.2,100,0.01,CLR,SKC,0.01,WeatherDisplay:10.37,2013-03-18 04:35:00,
2013-03-18 00:40:00,37.0,37.0,30.23,ESE,112,10.0,10.0,100,0.01,CLR,SKC,0.01,WeatherDisplay:10.37,2013-03-18 04:40:00,
2013-03-18 00:45:00,37.0,37.0,30.23,North,360,6.9,6.9,100,0.01,CLR,SKC,0.01,WeatherDisplay:10.37,2013-03-18 04:45:00,
2013-03-18 00:50:00,37.0,37.0,30.23,ENE,67,8.1,8.1,100,0.01,,SKC,0.01,WeatherDisplay:10.37,2013-03-18 04:50:00,
2013-03-18 00:55:00,37.0,37.0,30.23,ENE,67,6.0,6.0,100,0.01,,SKC,0.01,WeatherDisplay:10.37,2013-03-18 04:55:00,
2013-03-18 01:00:00,37.0,37.0,30.23,ENE,67,10.0,10.0,100,0.01,,SKC,0.01,WeatherDisplay:10.37,2013-03-18 05:00:00,
2013-03-18 01:05:00,37.0,37.0,30.23,ENE,67,9.2,9.2,100,0.01,CLR,SKC,0.01,WeatherDisplay:10.37,2013-03-18 05:05:00,
2013-03-18 01:10:00,37.0,37.0,30.22,ENE,67,10.0,10.0,100,0.01,,SKC,0.01,WeatherDisplay:10.37,2013-03-18 05:10:00,
2013-03-18 01:15:00,37.0,37.0,30.22,ENE,67,10.4,10.4,100,0.01,CLR,SKC,0.01,WeatherDisplay:10.37,2013-03-18 05:15:00,
2013-03-18 01:20:00,37.0,37.0,30.22,ESE,112,10.4,10.4,100,0.01,CLR,SKC,0.01,WeatherDisplay:10.37,2013-03-18 05:20:00,
2013-03-18 01:25:00,37.0,37.0,30.22,ENE,67,11.5,11.5,100,0.00,CLR,SKC,0.01,WeatherDisplay:10.37,2013-03-18 05:25:00,
2013-03-18 01:30:00,37.0,37.0,30.23,NNE,22,5.8,5.8,100,0.00,CLR,SKC,0.01,WeatherDisplay:10.37,2013-03-18 05:30:00,
2013-03-18 01:35:00,37.0,37.0,30.23,SSE,157,10.4,10.4,100,0.00,,SKC,0.01,WeatherDisplay:10.37,2013-03-18 05:35:00,
2013-03-18 01:40:00,37.0,37.0,30.23,NNE,22,8.1,8.1,100,0.00,,SKC,0.01,WeatherDisplay:10.37,2013-03-18 05:40:00,
2013-03-18 01:45:00,37.0,37.0,30.23,ENE,67,8.1,8.1,100,0.00,,SKC,0.01,WeatherDisplay:10.37,2013-03-18 05:45:00,
2013-03-18 01:50:00,37.0,37.0,30.23,East,90,12.7,12.7,100,0.01,RA,SKC,0.02,WeatherDisplay:10.37,2013-03-18 05:50:00,
2013-03-18 01:55:00,37.0,37.0,30.23,ENE,67,12.0,12.0,100,0.01,RA,SKC,0.02,WeatherDisplay:10.37,2013-03-18 05:55:00,
2013-03-18 02:00:00,37.0,37.0,30.22,NE,45,8.1,8.1,100,0.01,,SKC,0.02,WeatherDisplay:10.37,2013-03-18 06:00:00,
2013-03-18 02:05:00,37.0,37.0,30.22,WNW,292,5.8,5.8,100,0.01,CLR,SKC,0.02,WeatherDisplay:10.37,2013-03-18 06:05:00,
2013-03-18 02:10:00,37.0,37.0,30.22,NE,45,9.2,9.2,100,0.01,,SKC,0.02,WeatherDisplay:10.37,2013-03-18 06:10:00,
2013-03-18 02:15:00,37.0,37.0,30.22,NNE,22,8.0,8.0,100,0.01,,SKC,0.02,WeatherDisplay:10.37,2013-03-18 06:15:00,
2013-03-18 02:20:00,37.0,37.0,30.22,NE,45,9.2,9.2,100,0.01,CLR,SKC,0.02,WeatherDisplay:10.37,2013-03-18 06:20:00,
2013-03-18 02:25:00,37.0,37.0,30.22,NE,45,9.2,9.2,100,0.01,CLR,SKC,0.02,WeatherDisplay:10.37,2013-03-18 06:25:00,
2013-03-18 02:30:00,37.0,37.0,30.21,East,90,8.1,8.1,100,0.01,CLR,SKC,0.02,WeatherDisplay:10.37,2013-03-18 06:30:00,
2013-03-18 02:35:00,37.0,37.0,30.21,ENE,67,8.1,8.1,100,0.01,CLR,SKC,0.02,WeatherDisplay:10.37,2013-03-18 06:35:00,
2013-03-18 02:40:00,37.0,37.0,30.21,ENE,67,5.8,5.8,100,0.01,,SKC,0.02,WeatherDisplay:10.37,2013-03-18 06:40:00,
2013-03-18 02:45:00,37.0,37.0,30.21,ENE,67,11.5,11.5,100,0.01,,SKC,0.02,WeatherDisplay:10.37,2013-03-18 06:45:00,
2013-03-18 02:50:00,37.0,37.0,30.22,ESE,112,10.4,10.4,100,0.00,,SKC,0.02,WeatherDisplay:10.37,2013-03-18 06:50:00,
2013-03-18 02:55:00,37.0,37.0,30.22,NNE,22,10.4,10.4,100,0.00,CLR,SKC,0.02,WeatherDisplay:10.37,2013-03-18 06:55:00,
2013-03-18 03:00:00,37.0,37.0,30.22,ENE,67,8.1,8.1,100,0.00,CLR,SKC,0.02,WeatherDisplay:10.37,2013-03-18 07:00:00,
2013-03-18 03:05:00,37.0,37.0,30.22,NE,45,7.0,7.0,100,0.00,,SKC,0.02,WeatherDisplay:10.37,2013-03-18 07:05:00,
2013-03-18 03:10:00,37.0,37.0,30.22,ESE,112,6.9,6.9,100,0.00,,SKC,0.02,WeatherDisplay:10.37,2013-03-18 07:10:00,
2013-03-18 03:15:00,37.0,37.0,30.22,East,90,11.5,11.5,100,0.00,CLR,SKC,0.02,WeatherDisplay:10.37,2013-03-18 07:15:00,
2013-03-18 03:20:00,37.0,37.0,30.22,SE,135,9.2,9.2,100,0.00,CLR,SKC,0.02,WeatherDisplay:10.37,2013-03-18 07:20:00,
2013-03-18 03:25:00,37.0,37.0,30.22,ENE,67,5.8,5.8,100,0.00,,SKC,0.02,WeatherDisplay:10.37,2013-03-18 07:25:00,
2013-03-18 03:30:00,37.0,37.0,30.21,NE,45,6.9,6.9,100,0.00,,SKC,0.02,WeatherDisplay:10.37,2013-03-18 07:30:00,
2013-03-18 03:35:00,37.0,37.0,30.21,East,90,8.1,8.1,100,0.00,,SKC,0.02,WeatherDisplay:10.37,2013-03-18 07:35:00,
2013-03-18 03:40:00,37.0,37.0,30.22,ENE,67,8.1,8.1,100,0.00,CLR,SKC,0.02,WeatherDisplay:10.37,2013-03-18 07:40:00,
2013-03-18 03:45:00,36.0,36.0,30.22,ENE,67,11.5,11.5,100,0.01,RA,SKC,0.03,WeatherDisplay:10.37,2013-03-18 07:45:00,
2013-03-18 03:50:00,36.0,36.0,30.22,NE,45,11.5,11.5,100,0.01,RA,SKC,0.03,WeatherDisplay:10.37,2013-03-18 07:50:00,
2013-03-18 03:55:00,36.0,36.0,30.22,NNE,22,11.5,11.5,100,0.01,CLR,SKC,0.03,WeatherDisplay:10.37,2013-03-18 07:55:00,
2013-03-18 04:00:00,36.0,36.0,30.22,ENE,67,10.4,10.4,100,0.01,CLR,SKC,0.03,WeatherDisplay:10.37,2013-03-18 08:00:00,
2013-03-18 04:05:00,36.0,36.0,30.22,NNE,22,11.5,11.5,100,0.01,CLR,SKC,0.03,WeatherDisplay:10.37,2013-03-18 08:05:00,
2013-03-18 04:10:00,36.0,36.0,30.22,ENE,67,9.0,9.0,100,0.01,CLR,SKC,0.03,WeatherDisplay:10.37,2013-03-18 08:10:00,
2013-03-18 04:15:00,36.0,36.0,30.22,NE,45,5.8,5.8,100,0.01,CLR,SKC,0.03,WeatherDisplay:10.37,2013-03-18 08:15:00,
2013-03-18 04:20:00,36.0,36.0,30.21,ENE,67,8.1,8.1,100,0.02,RA,SKC,0.04,WeatherDisplay:10.37,2013-03-18 08:20:00,
2013-03-18 04:25:00,36.0,36.0,30.21,NE,45,10.4,10.4,100,0.02,RA,SKC,0.04,WeatherDisplay:10.37,2013-03-18 08:25:00,
2013-03-18 04:30:00,36.0,36.0,30.21,East,90,7.0,7.0,100,0.02,,SKC,0.04,WeatherDisplay:10.37,2013-03-18 08:30:00,
2013-03-18 04:35:00,36.0,36.0,30.21,ENE,67,11.5,11.5,100,0.02,CLR,SKC,0.04,WeatherDisplay:10.37,2013-03-18 08:35:00,
2013-03-18 04:40:00,36.0,36.0,30.21,ENE,67,12.7,12.7,100,0.02,CLR,SKC,0.04,WeatherDisplay:10.37,2013-03-18 08:40:00,
2013-03-18 04:45:00,36.0,36.0,30.21,ESE,112,13.8,13.8,100,0.01,CLR,SKC,0.04,WeatherDisplay:10.37,2013-03-18 08:45:00,
2013-03-18 04:50:00,36.0,36.0,30.21,ESE,112,6.0,6.0,100,0.01,CLR,SKC,0.04,WeatherDisplay:10.37,2013-03-18 08:50:00,
2013-03-18 04:55:00,36.0,36.0,30.21,East,90,12.7,12.7,100,0.01,CLR,SKC,0.04,WeatherDisplay:10.37,2013-03-18 08:55:00,
2013-03-18 05:00:00,36.0,36.0,30.21,ESE,112,10.4,10.4,100,0.01,CLR,SKC,0.04,WeatherDisplay:10.37,2013-03-18 09:00:00,
2013-03-18 05:05:00,36.0,36.0,30.21,NNE,22,10.4,10.4,100,0.01,CLR,SKC,0.04,WeatherDisplay:10.37,2013-03-18 09:05:00,
2013-03-18 05:10:00,36.0,36.0,30.21,NE,45,8.1,8.1,100,0.01,CLR,SKC,0.04,WeatherDisplay:10.37,2013-03-18 09:10:00,
2013-03-18 05:15:00,36.0,36.0,30.21,ENE,67,10.4,10.4,100,0.01,,SKC,0.04,WeatherDisplay:10.37,2013-03-18 09:15:00,
2013-03-18 05:20:00,36.0,36.0,30.22,NE,45,5.8,5.8,100,0.00,CLR,SKC,0.04,WeatherDisplay:10.37,2013-03-18 09:20:00,
2013-03-18 05:25:00,36.0,36.0,30.22,ENE,67,11.5,11.5,100,0.00,CLR,SKC,0.04,WeatherDisplay:10.37,2013-03-18 09:25:00,
2013-03-18 05:30:00,36.0,36.0,30.22,NNE,22,10.4,10.4,100,0.00,CLR,SKC,0.04,WeatherDisplay:10.37,2013-03-18 09:30:00,
2013-03-18 05:35:00,36.0,36.0,30.22,ENE,67,9.2,9.2,100,0.01,RA,SKC,0.05,WeatherDisplay:10.37,2013-03-18 09:35:00,
2013-03-18 05:40:00,36.0,36.0,30.23,NNE,22,11.5,11.5,100,0.01,RA,SKC,0.05,WeatherDisplay:10.37,2013-03-18 09:40:00,
2013-03-18 05:45:00,36.0,36.0,30.23,NNE,22,11.5,11.5,100,0.01,,SKC,0.05,WeatherDisplay:10.37,2013-03-18 09:45:00,
2013-03-18 05:50:00,36.0,36.0,30.23,ENE,67,6.9,6.9,100,0.01,CLR,SKC,0.05,WeatherDisplay:10.37,2013-03-18 09:50:00,
2013-03-18 05:55:00,36.0,36.0,30.23,ENE,67,11.0,11.0,100,0.01,CLR,SKC,0.05,WeatherDisplay:10.37,2013-03-18 09:55:00,
2013-03-18 06:00:00,36.0,36.0,30.24,NE,45,10.4,10.4,100,0.01,CLR,SKC,0.05,WeatherDisplay:10.37,2013-03-18 10:00:00,
2013-03-18 06:05:00,36.0,36.0,30.24,ENE,67,10.4,10.4,100,0.01,CLR,SKC,0.05,WeatherDisplay:10.37,2013-03-18 10:05:00,
2013-03-18 06:10:00,36.0,36.0,30.23,ENE,67,9.2,9.2,100,0.01,CLR,SKC,0.05,WeatherDisplay:10.37,2013-03-18 10:10:00,
2013-03-18 06:15:00,36.0,36.0,30.23,ESE,112,7.0,7.0,100,0.01,,SKC,0.05,WeatherDisplay:10.37,2013-03-18 10:15:00,
2013-03-18 06:20:00,36.0,36.0,30.25,East,90,9.2,9.2,100,0.02,RA,SKC,0.06,WeatherDisplay:10.37,2013-03-18 10:20:00,
2013-03-18 06:25:00,36.0,36.0,30.25,NE,45,6.9,6.9,100,0.02,RA,SKC,0.06,WeatherDisplay:10.37,2013-03-18 10:25:00,
2013-03-18 06:30:00,36.0,36.0,30.24,NE,45,8.1,8.1,100,0.02,CLR,SKC,0.06,WeatherDisplay:10.37,2013-03-18 10:30:00,
2013-03-18 06:35:00,36.0,36.0,30.24,NNE,22,8.1,8.1,100,0.01,CLR,SKC,0.06,WeatherDisplay:10.37,2013-03-18 10:35:00,
2013-03-18 06:40:00,36.0,36.0,30.24,NE,45,6.0,6.0,100,0.01,CLR,SKC,0.06,WeatherDisplay:10.37,2013-03-18 10:40:00,
2013-03-18 06:45:00,36.0,36.0,30.24,NNE,22,9.2,9.2,100,0.01,CLR,SKC,0.06,WeatherDisplay:10.37,2013-03-18 10:45:00,
2013-03-18 06:50:00,36.0,36.0,30.25,NNE,22,8.1,8.1,100,0.01,CLR,SKC,0.06,WeatherDisplay:10.37,2013-03-18 10:50:00,
2013-03-18 06:55:00,36.0,36.0,30.25,NE,45,9.2,9.2,100,0.01,CLR,SKC,0.06,WeatherDisplay:10.37,2013-03-18 10:55:00,
2013-03-18 07:00:00,36.0,36.0,30.25,NE,45,8.1,8.1,100,0.01,CLR,SKC,0.06,WeatherDisplay:10.37,2013-03-18 11:00:00,
2013-03-18 07:05:00,36.0,36.0,30.25,NE,45,8.1,8.1,100,0.01,CLR,SKC,0.06,WeatherDisplay:10.37,2013-03-18 11:05:00,
2013-03-18 07:10:00,36.0,36.0,30.25,ENE,67,8.1,8.1,100,0.01,CLR,SKC,0.06,WeatherDisplay:10.37,2013-03-18 11:10:00,
2013-03-18 07:15:00,36.0,36.0,30.25,SE,135,10.4,10.4,100,0.01,CLR,SKC,0.06,WeatherDisplay:10.37,2013-03-18 11:15:00,
2013-03-18 07:20:00,36.0,36.0,30.25,NNE,22,9.0,9.0,100,0.00,CLR,SKC,0.06,WeatherDisplay:10.37,2013-03-18 11:20:00,
2013-03-18 07:25:00,35.0,35.0,30.25,NNE,22,8.1,8.1,100,0.00,CLR,SKC,0.06,WeatherDisplay:10.37,2013-03-18 11:25:00,
2013-03-18 07:30:00,35.0,35.0,30.25,NE,45,8.1,8.1,100,0.00,CLR,SKC,0.06,WeatherDisplay:10.37,2013-03-18 11:30:00,
2013-03-18 07:35:00,36.0,36.0,30.26,ENE,67,9.2,9.2,100,0.00,CLR,SKC,0.06,WeatherDisplay:10.37,2013-03-18 11:35:00,
2013-03-18 07:40:00,35.0,35.0,30.26,East,90,6.9,6.9,100,0.00,CLR,SKC,0.06,WeatherDisplay:10.37,2013-03-18 11:40:00,
2013-03-18 07:45:00,35.0,35.0,30.26,ENE,67,8.1,8.1,100,0.00,CLR,SKC,0.06,WeatherDisplay:10.37,2013-03-18 11:45:00,
2013-03-18 07:50:00,35.0,35.0,30.26,ENE,67,10.4,10.4,100,0.00,CLR,SKC,0.06,WeatherDisplay:10.37,2013-03-18 11:50:00,
2013-03-18 07:55:00,35.0,35.0,30.26,ENE,67,9.2,9.2,100,0.00,CLR,SKC,0.06,WeatherDisplay:10.37,2013-03-18 11:55:00,
2013-03-18 08:00:00,35.0,35.0,30.26,ESE,112,11.5,11.5,100,0.00,CLR,SKC,0.06,WeatherDisplay:10.37,2013-03-18 12:00:00,
2013-03-18 08:05:00,35.0,35.0,30.26,ENE,67,9.2,9.2,100,0.00,CLR,SKC,0.06,WeatherDisplay:10.37,2013-03-18 12:05:00,
2013-03-18 08:10:00,35.0,35.0,30.25,ENE,67,10.4,10.4,100,0.00,CLR,SKC,0.06,WeatherDisplay:10.37,2013-03-18 12:10:00,
2013-03-18 08:15:00,35.0,35.0,30.25,ENE,67,10.4,10.4,100,0.00,CLR,SKC,0.06,WeatherDisplay:10.37,2013-03-18 12:15:00,
2013-03-18 08:20:00,35.0,35.0,30.25,NNE,22,11.0,11.0,100,0.00,CLR,SKC,0.06,WeatherDisplay:10.37,2013-03-18 12:20:00,
2013-03-18 08:25:00,35.0,35.0,30.25,NE,45,10.4,10.4,100,0.00,CLR,SKC,0.06,WeatherDisplay:10.37,2013-03-18 12:25:00,
2013-03-18 08:30:00,35.0,35.0,30.26,ENE,67,6.9,6.9,100,0.00,CLR,SKC,0.06,WeatherDisplay:10.37,2013-03-18 12:30:00,
2013-03-18 08:35:00,36.0,36.0,30.26,NE,45,6.9,6.9,100,0.00,,SKC,0.06,WeatherDisplay:10.37,2013-03-18 12:35:00,
2013-03-18 08:40:00,35.0,35.0,30.26,NE,45,10.4,10.4,100,0.00,,SKC,0.06,WeatherDisplay:10.37,2013-03-18 12:40:00,
2013-03-18 08:45:00,35.0,35.0,30.26,NNE,22,7.0,7.0,100,0.00,CLR,SKC,0.06,WeatherDisplay:10.37,2013-03-18 12:45:00,
2013-03-18 08:50:00,35.0,35.0,30.25,NE,45,11.5,11.5,100,0.00,CLR,SKC,0.06,WeatherDisplay:10.37,2013-03-18 12:50:00,
2013-03-18 08:55:00,35.0,35.0,30.25,ENE,67,12.7,12.7,100,0.00,CLR,SKC,0.06,WeatherDisplay:10.37,2013-03-18 12:55:00,
2013-03-18 09:00:00,35.0,35.0,30.25,NNE,22,11.5,11.5,100,0.01,RA,SKC,0.07,WeatherDisplay:10.37,2013-03-18 13:00:00,
2013-03-18 09:05:00,35.0,35.0,30.25,NNE,22,9.2,9.2,100,0.01,RA,SKC,0.07,WeatherDisplay:10.37,2013-03-18 13:05:00,
2013-03-18 09:10:00,35.0,35.0,30.25,NE,45,11.5,11.5,100,0.01,CLR,SKC,0.07,WeatherDisplay:10.37,2013-03-18 13:10:00,
2013-03-18 09:15:00,36.0,36.0,30.26,NE,45,10.4,10.4,100,0.01,CLR,SKC,0.07,WeatherDisplay:10.37,2013-03-18 13:15:00,
2013-03-18 09:20:00,35.0,35.0,30.26,NE,45,8.1,8.1,100,0.01,CLR,SKC,0.07,WeatherDisplay:10.37,2013-03-18 13:20:00,
2013-03-18 09:25:00,36.0,36.0,30.25,NE,45,10.4,10.4,100,0.01,CLR,SKC,0.07,WeatherDisplay:10.37,2013-03-18 13:25:00,
2013-03-18 09:30:00,35.0,35.0,30.25,East,90,10.4,10.4,100,0.01,CLR,SKC,0.07,WeatherDisplay:10.37,2013-03-18 13:30:00,
2013-03-18 09:35:00,36.0,36.0,30.25,ESE,112,9.2,9.2,100,0.01,CLR,SKC,0.07,WeatherDisplay:10.37,2013-03-18 13:35:00,
2013-03-18 09:40:00,35.0,35.0,30.25,NE,45,13.8,13.8,100,0.01,CLR,SKC,0.07,WeatherDisplay:10.37,2013-03-18 13:40:00,
2013-03-18 09:45:00,36.0,36.0,30.25,NNE,22,5.8,5.8,100,0.01,CLR,SKC,0.07,WeatherDisplay:10.37,2013-03-18 13:45:00,
2013-03-18 09:50:00,36.0,36.0,30.25,ENE,67,8.1,8.1,100,0.01,CLR,SKC,0.07,WeatherDisplay:10.37,2013-03-18 13:50:00,
2013-03-18 09:55:00,36.0,36.0,30.25,ESE,112,5.8,5.8,100,0.01,CLR,SKC,0.07,WeatherDisplay:10.37,2013-03-18 13:55:00,
2013-03-18 10:00:00,36.0,36.0,30.25,East,90,6.0,6.0,100,0.00,CLR,SKC,0.07,WeatherDisplay:10.37,2013-03-18 14:00:00,
2013-03-18 10:05:00,36.0,36.0,30.25,East,90,10.4,10.4,100,0.00,RA,SKC,0.07,WeatherDisplay:10.37,2013-03-18 14:05:00,
2013-03-18 10:10:00,36.0,36.0,30.25,East,90,11.5,11.5,100,0.00,RA,SKC,0.07,WeatherDisplay:10.37,2013-03-18 14:10:00,
2013-03-18 10:15:00,36.0,36.0,30.24,East,90,8.1,8.1,100,0.00,CLR,SKC,0.07,WeatherDisplay:10.37,2013-03-18 14:15:00,
2013-03-18 10:20:00,36.0,36.0,30.24,NE,45,7.0,7.0,100,0.00,CLR,SKC,0.07,WeatherDisplay:10.37,2013-03-18 14:20:00,
2013-03-18 10:29:00,36.0,36.0,30.23,ENE,67,11.5,11.5,100,0.00,CLR,SKC,0.07,WeatherDisplay:10.37,2013-03-18 14:29:00,
2013-03-18 10:34:00,36.0,36.0,30.23,NE,45,8.1,8.1,100,0.00,CLR,SKC,0.07,WeatherDisplay:10.37,2013-03-18 14:34:00,
2013-03-18 10:39:00,36.0,36.0,30.22,ESE,112,10.4,10.4,100,0.00,CLR,SKC,0.07,WeatherDisplay:10.37,2013-03-18 14:39:00,
2013-03-18 10:44:00,36.0,36.0,30.22,ENE,67,11.5,11.5,100,0.00,CLR,SKC,0.07,WeatherDisplay:10.37,2013-03-18 14:44:00,
2013-03-18 10:49:00,36.0,36.0,30.20,ENE,67,11.5,11.5,100,0.00,CLR,SKC,0.07,WeatherDisplay:10.37,2013-03-18 14:49:00,
2013-03-18 10:54:00,36.0,36.0,30.20,ESE,112,13.8,13.8,100,0.00,CLR,SKC,0.07,WeatherDisplay:10.37,2013-03-18 14:54:00,
2013-03-18 10:59:00,37.0,37.0,30.20,ESE,112,9.2,9.2,100,0.00,CLR,SKC,0.07,WeatherDisplay:10.37,2013-03-18 14:59:00,
2013-03-18 11:04:00,36.0,36.0,30.20,East,90,11.5,11.5,100,0.00,CLR,SKC,0.07,WeatherDisplay:10.37,2013-03-18 15:04:00,
2013-03-18 11:09:00,37.0,37.0,30.19,ENE,67,11.5,11.5,100,0.00,CLR,SKC,0.07,WeatherDisplay:10.37,2013-03-18 15:09:00,
2013-03-18 11:15:00,37.0,37.0,30.19,East,90,11.5,11.5,100,0.00,CLR,SKC,0.07,WeatherDisplay:10.37,2013-03-18 15:15:00,
2013-03-18 11:20:00,37.0,37.0,30.19,ENE,67,6.9,6.9,100,0.00,CLR,SKC,0.07,WeatherDisplay:10.37,2013-03-18 15:20:00,
2013-03-18 11:25:00,37.0,37.0,30.19,ESE,112,9.2,9.2,100,0.00,CLR,SKC,0.07,WeatherDisplay:10.37,2013-03-18 15:25:00,
2013-03-18 11:30:00,37.0,37.0,30.19,NE,45,6.0,6.0,100,0.00,CLR,SKC,0.07,WeatherDisplay:10.37,2013-03-18 15:30:00,
2013-03-18 11:35:00,37.0,37.0,30.19,SE,135,11.5,11.5,100,0.00,,SKC,0.07,WeatherDisplay:10.37,2013-03-18 15:35:00,
2013-03-18 11:40:00,37.0,37.0,30.19,NE,45,9.2,9.2,100,0.00,CLR,SKC,0.07,WeatherDisplay:10.37,2013-03-18 15:40:00,
2013-03-18 11:45:00,38.0,38.0,30.18,NE,45,6.9,6.9,100,0.00,,SKC,0.07,WeatherDisplay:10.37,2013-03-18 15:45:00,
2013-03-18 11:50:00,38.0,38.0,30.18,NE,45,4.6,4.6,100,0.00,,SKC,0.07,WeatherDisplay:10.37,2013-03-18 15:50:00,
2013-03-18 11:55:00,38.0,38.0,30.18,NNE,22,8.1,8.1,100,0.00,,SKC,0.07,WeatherDisplay:10.37,2013-03-18 15:55:00,
2013-03-18 12:00:00,38.0,38.0,30.18,ENE,67,5.8,5.8,100,0.00,,SKC,0.07,WeatherDisplay:10.37,2013-03-18 16:00:00,
2013-03-18 12:05:00,38.0,38.0,30.19,NE,45,9.2,9.2,100,0.00,,SKC,0.07,WeatherDisplay:10.37,2013-03-18 16:05:00,
2013-03-18 12:10:00,38.0,38.0,30.19,ESE,112,6.0,6.0,100,0.00,,SKC,0.07,WeatherDisplay:10.37,2013-03-18 16:10:00,
2013-03-18 12:15:00,38.0,38.0,30.19,NNE,22,5.8,5.8,100,0.00,,SKC,0.07,WeatherDisplay:10.37,2013-03-18 16:15:00,
2013-03-18 12:20:00,38.0,38.0,30.19,ENE,67,8.1,8.1,100,0.00,,SKC,0.07,WeatherDisplay:10.37,2013-03-18 16:20:00,
2013-03-18 12:25:00,38.0,38.0,30.19,ESE,112,6.9,6.9,100,0.00,,SKC,0.07,WeatherDisplay:10.37,2013-03-18 16:25:00,
2013-03-18 12:30:00,38.0,38.0,30.19,ENE,67,4.6,4.6,100,0.00,,SKC,0.07,WeatherDisplay:10.37,2013-03-18 16:30:00,
2013-03-18 12:35:00,38.0,38.0,30.18,NE,45,5.8,5.8,100,0.00,,SKC,0.07,WeatherDisplay:10.37,2013-03-18 16:35:00,
2013-03-18 12:40:00,38.0,38.0,30.18,ESE,112,6.9,6.9,100,0.00,,SKC,0.07,WeatherDisplay:10.37,2013-03-18 16:40:00,
2013-03-18 12:45:00,38.0,38.0,30.17,East,90,9.0,9.0,100,0.00,,SKC,0.07,WeatherDisplay:10.37,2013-03-18 16:45:00,
2013-03-18 12:50:00,38.0,38.0,30.17,ENE,67,8.1,8.1,100,0.00,,SKC,0.07,WeatherDisplay:10.37,2013-03-18 16:50:00,
2013-03-18 12:55:00,39.0,39.0,30.16,ESE,112,4.6,4.6,100,0.00,,SKC,0.07,WeatherDisplay:10.37,2013-03-18 16:55:00,
2013-03-18 13:00:00,39.0,39.0,30.16,NNE,22,5.8,5.8,100,0.00,,SKC,0.07,WeatherDisplay:10.37,2013-03-18 17:00:00,
2013-03-18 13:05:00,39.0,39.0,30.15,ESE,112,6.9,6.9,100,0.00,,SKC,0.07,WeatherDisplay:10.37,2013-03-18 17:05:00,
2013-03-18 13:10:00,39.0,39.0,30.15,ENE,67,5.8,5.8,100,0.00,,SKC,0.07,WeatherDisplay:10.37,2013-03-18 17:10:00,
2013-03-18 13:15:00,39.0,39.0,30.15,NNE,22,5.8,5.8,100,0.00,,SKC,0.07,WeatherDisplay:10.37,2013-03-18 17:15:00,
2013-03-18 13:20:00,39.0,39.0,30.15,NNE,22,6.9,6.9,100,0.00,,SKC,0.07,WeatherDisplay:10.37,2013-03-18 17:20:00,
2013-03-18 13:25:00,39.0,39.0,30.14,East,90,7.0,7.0,100,0.00,,SKC,0.07,WeatherDisplay:10.37,2013-03-18 17:25:00,
2013-03-18 13:30:00,39.0,39.0,30.14,NNE,22,9.0,9.0,100,0.00,,SKC,0.07,WeatherDisplay:10.37,2013-03-18 17:30:00,
2013-03-18 13:35:00,39.0,39.0,30.14,NE,45,6.9,6.9,100,0.00,,SKC,0.07,WeatherDisplay:10.37,2013-03-18 17:35:00,
2013-03-18 13:40:00,39.0,39.0,30.14,North,360,5.0,5.0,100,0.00,,SKC,0.07,WeatherDisplay:10.37,2013-03-18 17:40:00,
2013-03-18 13:45:00,39.0,39.0,30.15,NE,45,4.6,4.6,100,0.00,,SKC,0.07,WeatherDisplay:10.37,2013-03-18 17:45:00,
2013-03-18 13:50:00,39.0,39.0,30.15,SE,135,4.0,4.0,100,0.00,,SKC,0.07,WeatherDisplay:10.37,2013-03-18 17:50:00,
2013-03-18 13:55:00,39.0,39.0,30.14,ESE,112,4.0,4.0,100,0.00,,SKC,0.07,WeatherDisplay:10.37,2013-03-18 17:55:00,
2013-03-18 14:00:00,39.0,39.0,30.14,ENE,67,4.6,4.6,100,0.00,,SKC,0.07,WeatherDisplay:10.37,2013-03-18 18:00:00,
2013-03-18 14:05:00,39.0,39.0,30.14,NE,45,5.8,5.8,100,0.00,,SKC,0.07,WeatherDisplay:10.37,2013-03-18 18:05:00,
2013-03-18 14:10:00,39.0,39.0,30.14,ENE,67,4.6,4.6,100,0.00,,SKC,0.07,WeatherDisplay:10.37,2013-03-18 18:10:00,
2013-03-18 14:15:00,40.0,40.0,30.12,ESE,112,4.6,5.1,100,0.00,,SKC,0.07,WeatherDisplay:10.37,2013-03-18 18:15:00,
2013-03-18 14:20:00,39.0,39.0,30.12,ESE,112,4.6,4.6,100,0.00,,SKC,0.07,WeatherDisplay:10.37,2013-03-18 18:20:00,
2013-03-18 14:25:00,40.0,40.0,30.11,ESE,112,4.0,4.0,100,0.00,,SKC,0.07,WeatherDisplay:10.37,2013-03-18 18:25:00,
2013-03-18 14:30:00,39.0,39.0,30.11,ENE,67,5.0,5.0,100,0.00,,SKC,0.07,WeatherDisplay:10.37,2013-03-18 18:30:00,
2013-03-18 14:35:00,40.0,40.0,30.10,NE,45,4.6,4.6,100,0.00,,SKC,0.07,WeatherDisplay:10.37,2013-03-18 18:35:00,
2013-03-18 14:40:00,40.0,40.0,30.10,SE,135,7.0,7.0,100,0.00,,SKC,0.07,WeatherDisplay:10.37,2013-03-18 18:40:00,
2013-03-18 14:45:00,40.0,40.0,30.09,ESE,112,5.8,5.8,100,0.00,,SKC,0.07,WeatherDisplay:10.37,2013-03-18 18:45:00,
2013-03-18 14:50:00,40.0,40.0,30.09,East,90,8.1,8.1,100,0.00,,SKC,0.07,WeatherDisplay:10.37,2013-03-18 18:50:00,
2013-03-18 14:55:00,40.0,40.0,30.08,East,90,8.0,8.0,100,0.00,,SKC,0.07,WeatherDisplay:10.37,2013-03-18 18:55:00,
2013-03-18 15:00:00,40.0,40.0,30.08,East,90,7.0,7.0,100,0.00,,SKC,0.07,WeatherDisplay:10.37,2013-03-18 19:00:00,
2013-03-18 15:05:00,40.0,40.0,30.06,ENE,67,10.4,10.4,100,0.00,CLR,SKC,0.07,WeatherDisplay:10.37,2013-03-18 19:05:00,
2013-03-18 15:10:00,40.0,40.0,30.06,NE,45,4.6,4.6,100,0.00,,SKC,0.07,WeatherDisplay:10.37,2013-03-18 19:10:00,
2013-03-18 15:15:00,40.0,40.0,30.06,East,90,8.1,8.1,100,0.00,,SKC,0.07,WeatherDisplay:10.37,2013-03-18 19:15:00,
2013-03-18 15:20:00,40.0,40.0,30.06,ESE,112,6.9,6.9,100,0.00,,SKC,0.07,WeatherDisplay:10.37,2013-03-18 19:20:00,
2013-03-18 15:25:00,40.0,40.0,30.06,ESE,112,6.0,6.0,100,0.00,,SKC,0.07,WeatherDisplay:10.37,2013-03-18 19:25:00,
2013-03-18 15:31:00,40.0,40.0,30.06,SE,135,3.5,3.5,100,0.00,,SKC,0.07,WeatherDisplay:10.37,2013-03-18 19:31:00,
2013-03-18 15:36:00,41.0,41.0,30.05,ESE,112,7.0,7.0,100,0.00,,SKC,0.07,WeatherDisplay:10.37,2013-03-18 19:36:00,
2013-03-18 15:41:00,40.0,40.0,30.05,East,90,6.9,6.9,100,0.00,,SKC,0.07,WeatherDisplay:10.37,2013-03-18 19:41:00,
2013-03-18 15:46:00,40.0,40.0,30.04,ESE,112,6.9,6.9,100,0.00,,SKC,0.07,WeatherDisplay:10.37,2013-03-18 19:46:00,
2013-03-18 15:51:00,40.0,40.0,30.04,ESE,112,5.0,5.0,100,0.00,,SKC,0.07,WeatherDisplay:10.37,2013-03-18 19:51:00,
2013-03-18 15:56:00,40.0,40.0,30.04,East,90,5.0,5.0,100,0.00,,SKC,0.07,WeatherDisplay:10.37,2013-03-18 19:56:00,
2013-03-18 16:01:00,40.0,40.0,30.04,ESE,112,6.9,6.9,100,0.00,,SKC,0.07,WeatherDisplay:10.37,2013-03-18 20:01:00,
2013-03-18 16:06:00,40.0,40.0,30.04,NE,45,4.6,4.6,100,0.00,,SKC,0.07,WeatherDisplay:10.37,2013-03-18 20:06:00,
2013-03-18 16:11:00,40.0,40.0,30.04,SE,135,4.6,4.6,100,0.00,,SKC,0.07,WeatherDisplay:10.37,2013-03-18 20:11:00,
2013-03-18 16:17:00,40.0,40.0,30.04,ESE,112,4.6,4.6,100,0.00,,SKC,0.07,WeatherDisplay:10.37,2013-03-18 20:17:00,
2013-03-18 16:22:00,41.0,41.0,30.04,NE,45,3.5,3.5,100,0.00,,SKC,0.07,WeatherDisplay:10.37,2013-03-18 20:22:00,
2013-03-18 16:27:00,40.0,40.0,30.05,ENE,67,3.5,3.5,100,0.00,,SKC,0.07,WeatherDisplay:10.37,2013-03-18 20:27:00,
2013-03-18 16:32:00,40.0,40.0,30.05,ESE,112,3.5,3.5,100,0.00,,SKC,0.07,WeatherDisplay:10.37,2013-03-18 20:32:00,
2013-03-18 16:37:00,41.0,41.0,30.05,NNE,22,4.0,4.0,100,0.00,,SKC,0.07,WeatherDisplay:10.37,2013-03-18 20:37:00,
2013-03-18 16:42:00,40.0,40.0,30.05,NNE,22,3.5,3.5,100,0.00,,SKC,0.07,WeatherDisplay:10.37,2013-03-18 20:42:00,
2013-03-18 16:47:00,41.0,41.0,30.04,ESE,112,4.6,4.6,100,0.00,,SKC,0.07,WeatherDisplay:10.37,2013-03-18 20:47:00,
2013-03-18 16:52:00,40.0,40.0,30.04,ESE,112,4.6,4.6,100,0.00,,SKC,0.07,WeatherDisplay:10.37,2013-03-18 20:52:00,
2013-03-18 16:57:00,40.0,40.0,30.03,ESE,112,7.0,7.0,100,0.00,,SKC,0.07,WeatherDisplay:10.37,2013-03-18 20:57:00,
2013-03-18 17:02:00,41.0,41.0,30.03,ESE,112,4.0,4.0,100,0.00,,SKC,0.07,WeatherDisplay:10.37,2013-03-18 21:02:00,
2013-03-18 17:07:00,41.0,41.0,30.03,ESE,112,6.0,6.0,100,0.00,,SKC,0.07,WeatherDisplay:10.37,2013-03-18 21:07:00,
2013-03-18 17:12:00,41.0,41.0,30.03,ENE,67,4.0,4.0,100,0.00,,SKC,0.07,WeatherDisplay:10.37,2013-03-18 21:12:00,
2013-03-18 17:17:00,41.0,41.0,30.03,NNE,22,5.8,5.8,100,0.00,,SKC,0.07,WeatherDisplay:10.37,2013-03-18 21:17:00,
2013-03-18 17:22:00,41.0,41.0,30.03,NE,45,5.0,5.0,100,0.00,,SKC,0.07,WeatherDisplay:10.37,2013-03-18 21:22:00,
2013-03-18 17:27:00,41.0,41.0,30.03,NE,45,6.9,6.9,100,0.00,,SKC,0.07,WeatherDisplay:10.37,2013-03-18 21:27:00,
2013-03-18 17:32:00,41.0,41.0,30.03,ENE,67,6.9,6.9,100,0.00,,SKC,0.07,WeatherDisplay:10.37,2013-03-18 21:32:00,
2013-03-18 17:37:00,41.0,41.0,30.03,ESE,112,4.0,4.0,100,0.00,,SKC,0.07,WeatherDisplay:10.37,2013-03-18 21:37:00,
2013-03-18 17:42:00,41.0,41.0,30.03,SE,135,0.0,0.0,100,0.00,,SKC,0.07,WeatherDisplay:10.37,2013-03-18 21:42:00,
2013-03-18 17:47:00,41.0,41.0,30.03,NNE,22,5.0,5.0,100,0.00,,SKC,0.07,WeatherDisplay:10.37,2013-03-18 21:47:00,
2013-03-18 17:52:00,41.0,41.0,30.03,NNE,22,3.5,3.5,100,0.00,,SKC,0.07,WeatherDisplay:10.37,2013-03-18 21:52:00,
2013-03-18 17:58:00,41.0,41.0,30.02,NNE,22,5.0,5.0,100,0.00,,SKC,0.07,WeatherDisplay:10.37,2013-03-18 21:58:00,
2013-03-18 18:03:00,41.0,41.0,30.02,NE,45,5.0,5.0,100,0.00,,SKC,0.07,WeatherDisplay:10.37,2013-03-18 22:03:00,
2013-03-18 18:08:00,41.0,41.0,30.02,NE,45,3.5,3.5,100,0.00,,SKC,0.07,WeatherDisplay:10.37,2013-03-18 22:08:00,
2013-03-18 18:13:00,41.0,41.0,30.02,NNE,22,3.5,3.5,100,0.00,,SKC,0.07,WeatherDisplay:10.37,2013-03-18 22:13:00,
2013-03-18 18:18:00,41.0,41.0,30.02,NE,45,3.5,3.5,100,0.00,,SKC,0.07,WeatherDisplay:10.37,2013-03-18 22:18:00,
2013-03-18 18:23:00,41.0,41.0,30.02,NNE,22,3.5,3.5,100,0.00,,SKC,0.07,WeatherDisplay:10.37,2013-03-18 22:23:00,
2013-03-18 18:28:00,41.0,41.0,30.03,NE,45,5.8,5.8,100,0.00,,SKC,0.07,WeatherDisplay:10.37,2013-03-18 22:28:00,
2013-03-18 18:33:00,41.0,41.0,30.03,NNW,337,2.3,2.3,100,0.00,,SKC,0.07,WeatherDisplay:10.37,2013-03-18 22:33:00,
2013-03-18 18:38:00,41.0,41.0,30.04,NNW,337,0.0,0.0,100,0.00,,SKC,0.07,WeatherDisplay:10.37,2013-03-18 22:38:00,
2013-03-18 18:43:00,41.0,41.0,30.04,North,360,3.5,3.5,100,0.00,,SKC,0.07,WeatherDisplay:10.37,2013-03-18 22:43:00,
2013-03-18 18:48:00,41.0,41.0,30.03,NE,45,4.0,4.0,100,0.00,,SKC,0.07,WeatherDisplay:10.37,2013-03-18 22:48:00,
2013-03-18 18:53:00,41.0,41.0,30.03,ENE,67,5.0,5.0,100,0.00,,SKC,0.07,WeatherDisplay:10.37,2013-03-18 22:53:00,
2013-03-18 18:58:00,41.0,41.0,30.02,NE,45,8.1,8.1,100,0.00,,SKC,0.07,WeatherDisplay:10.37,2013-03-18 22:58:00,
2013-03-18 19:03:00,41.0,41.0,30.02,East,90,6.0,6.0,100,0.00,,SKC,0.07,WeatherDisplay:10.37,2013-03-18 23:03:00,
2013-03-18 19:08:00,41.0,41.0,30.01,ENE,67,6.9,6.9,100,0.00,,SKC,0.07,WeatherDisplay:10.37,2013-03-18 23:08:00,
2013-03-18 19:13:00,41.0,41.0,30.01,NNE,22,8.0,8.0,100,0.00,,SKC,0.07,WeatherDisplay:10.37,2013-03-18 23:13:00,
2013-03-18 19:18:00,41.0,41.0,30.01,NNE,22,5.0,5.0,100,0.00,,SKC,0.07,WeatherDisplay:10.37,2013-03-18 23:18:00,
2013-03-18 19:23:00,41.0,41.0,30.01,NE,45,4.0,4.0,100,0.00,,SKC,0.07,WeatherDisplay:10.37,2013-03-18 23:23:00,
2013-03-18 19:28:00,41.0,41.0,30.01,NNW,337,2.0,2.0,100,0.00,,SKC,0.07,WeatherDisplay:10.37,2013-03-18 23:28:00,
2013-03-18 19:33:00,41.0,41.0,30.01,NNE,22,3.5,3.5,100,0.00,,SKC,0.07,WeatherDisplay:10.37,2013-03-18 23:33:00,
2013-03-18 19:38:00,41.0,41.0,30.02,NNW,337,3.5,3.5,100,0.00,,SKC,0.07,WeatherDisplay:10.37,2013-03-18 23:38:00,
2013-03-18 19:43:00,41.0,41.0,30.02,NNW,337,3.5,3.5,100,0.00,,SKC,0.07,WeatherDisplay:10.37,2013-03-18 23:43:00,
2013-03-18 19:48:00,41.0,41.0,30.02,North,360,4.6,4.6,100,0.00,,SKC,0.07,WeatherDisplay:10.37,2013-03-18 23:48:00,
2013-03-18 19:53:00,41.0,41.0,30.02,NNE,22,5.0,5.0,100,0.00,,SKC,0.07,WeatherDisplay:10.37,2013-03-18 23:53:00,
2013-03-18 19:58:00,41.0,41.0,30.01,NE,45,9.2,9.2,100,0.00,,SKC,0.07,WeatherDisplay:10.37,2013-03-18 23:58:00,
2013-03-18 20:03:00,40.0,40.0,30.01,NNE,22,5.8,5.8,100,0.00,,SKC,0.07,WeatherDisplay:10.37,2013-03-19 00:03:00,
2013-03-18 20:08:00,40.0,40.0,30.01,North,360,4.6,4.6,100,0.00,,SKC,0.07,WeatherDisplay:10.37,2013-03-19 00:08:00,
2013-03-18 20:13:00,40.0,40.0,30.01,NE,45,4.0,4.0,100,0.00,,SKC,0.07,WeatherDisplay:10.37,2013-03-19 00:13:00,
2013-03-18 20:18:00,40.0,40.0,30.01,NNE,22,5.0,5.0,100,0.00,,SKC,0.07,WeatherDisplay:10.37,2013-03-19 00:18:00,
2013-03-18 20:23:00,40.0,40.0,30.01,NE,45,5.8,5.8,100,0.00,,SKC,0.07,WeatherDisplay:10.37,2013-03-19 00:23:00,
2013-03-18 20:28:00,40.0,40.0,30.00,ENE,67,6.9,6.9,100,0.00,,SKC,0.07,WeatherDisplay:10.37,2013-03-19 00:28:00,
2013-03-18 20:33:00,40.0,40.0,30.00,NNE,22,3.5,3.5,100,0.00,,SKC,0.07,WeatherDisplay:10.37,2013-03-19 00:33:00,
2013-03-18 20:38:00,40.0,40.0,30.01,ESE,112,4.6,4.8,100,0.00,,SKC,0.07,WeatherDisplay:10.37,2013-03-19 00:38:00,
2013-03-18 20:43:00,40.0,40.0,30.01,NNE,22,4.6,4.6,100,0.00,,SKC,0.07,WeatherDisplay:10.37,2013-03-19 00:43:00,
2013-03-18 20:48:00,40.0,40.0,30.01,North,360,5.8,5.8,100,0.00,,SKC,0.07,WeatherDisplay:10.37,2013-03-19 00:48:00,
2013-03-18 20:53:00,40.0,40.0,30.01,NW,315,4.0,4.0,100,0.00,,SKC,0.07,WeatherDisplay:10.37,2013-03-19 00:53:00,
2013-03-18 20:58:00,40.0,40.0,30.03,West,270,4.6,4.6,100,0.00,,SKC,0.07,WeatherDisplay:10.37,2013-03-19 00:58:00,
2013-03-18 21:03:00,40.0,40.0,30.03,West,270,7.0,7.0,100,0.00,,SKC,0.07,WeatherDisplay:10.37,2013-03-19 01:03:00,
2013-03-18 21:08:00,40.0,40.0,30.04,West,270,9.2,9.2,100,0.00,,SKC,0.07,WeatherDisplay:10.37,2013-03-19 01:08:00,
2013-03-18 21:13:00,40.0,40.0,30.04,West,270,9.2,9.2,100,0.01,RA,SKC,0.08,WeatherDisplay:10.37,2013-03-19 01:13:00,
2013-03-18 21:18:00,40.0,40.0,30.07,West,270,9.2,9.2,100,0.01,RA,SKC,0.08,WeatherDisplay:10.37,2013-03-19 01:18:00,
2013-03-18 21:23:00,40.0,40.0,30.07,West,270,4.6,4.6,100,0.01,,SKC,0.09,WeatherDisplay:10.37,2013-03-19 01:23:00,
2013-03-18 21:28:00,40.0,40.0,30.04,NNE,22,4.0,4.0,100,0.02,RA,SKC,0.09,WeatherDisplay:10.37,2013-03-19 01:28:00,
2013-03-18 21:33:00,40.0,40.0,30.04,East,90,5.8,5.8,100,0.03,RA,SKC,0.10,WeatherDisplay:10.37,2013-03-19 01:33:00,
2013-03-18 21:38:00,40.0,40.0,30.01,ESE,112,5.8,5.8,100,0.03,RA,SKC,0.10,WeatherDisplay:10.37,2013-03-19 01:38:00,
2013-03-18 21:43:00,40.0,40.0,30.01,NE,45,5.8,5.8,100,0.03,,SKC,0.10,WeatherDisplay:10.37,2013-03-19 01:43:00,
2013-03-18 21:48:00,40.0,40.0,30.00,NNW,337,3.5,3.5,100,0.03,CLR,SKC,0.10,WeatherDisplay:10.37,2013-03-19 01:48:00,
2013-03-18 21:53:00,39.0,39.0,30.00,NE,45,5.8,5.8,100,0.04,RA,SKC,0.11,WeatherDisplay:10.37,2013-03-19 01:53:00,
2013-03-18 21:58:00,39.0,39.0,30.00,NNE,22,3.5,3.5,100,0.04,RA,SKC,0.11,WeatherDisplay:10.37,2013-03-19 01:58:00,
2013-03-18 22:03:00,39.0,39.0,30.00,NNE,22,4.6,4.6,100,0.05,RA,SKC,0.12,WeatherDisplay:10.37,2013-03-19 02:03:00,
2013-03-18 22:08:00,39.0,39.0,30.00,NNW,337,3.5,3.5,100,0.05,RA,SKC,0.12,WeatherDisplay:10.37,2013-03-19 02:08:00,
2013-03-18 22:13:00,39.0,39.0,30.00,NNW,337,3.5,3.5,100,0.04,CLR,SKC,0.12,WeatherDisplay:10.37,2013-03-19 02:13:00,
2013-03-18 22:18:00,39.0,39.0,30.01,NW,315,0.0,0.0,100,0.05,RA,SKC,0.13,WeatherDisplay:10.37,2013-03-19 02:18:00,
2013-03-18 22:23:00,39.0,39.0,30.01,NW,315,3.5,3.5,100,0.05,RA,SKC,0.13,WeatherDisplay:10.37,2013-03-19 02:23:00,
2013-03-18 22:28:00,39.0,39.0,30.00,NW,315,2.3,2.3,100,0.05,RA,SKC,0.14,WeatherDisplay:10.37,2013-03-19 02:28:00,
2013-03-18 22:33:00,39.0,39.0,30.00,North,360,3.5,3.5,100,0.04,RA,SKC,0.14,WeatherDisplay:10.37,2013-03-19 02:33:00,
2013-03-18 22:38:00,39.0,39.0,30.00,West,270,4.6,4.7,100,0.04,,SKC,0.14,WeatherDisplay:10.37,2013-03-19 02:38:00,
2013-03-18 22:43:00,39.0,39.0,30.00,West,270,3.5,3.9,100,0.04,CLR,SKC,0.14,WeatherDisplay:10.37,2013-03-19 02:43:00,
2013-03-18 22:48:00,39.0,39.0,29.99,West,270,4.0,4.0,100,0.05,RA,SKC,0.15,WeatherDisplay:10.37,2013-03-19 02:48:00,
2013-03-18 22:53:00,39.0,39.0,29.99,West,270,0.0,0.0,100,0.04,RA,SKC,0.15,WeatherDisplay:10.37,2013-03-19 02:53:00,
2013-03-18 22:58:00,39.0,39.0,29.98,West,270,0.0,0.0,100,0.04,,SKC,0.15,WeatherDisplay:10.37,2013-03-19 02:58:00,
2013-03-18 23:03:00,39.0,39.0,29.98,West,270,0.0,0.0,100,0.04,RA,SKC,0.16,WeatherDisplay:10.37,2013-03-19 03:03:00,
2013-03-18 23:08:00,39.0,39.0,29.97,SSE,157,3.5,3.5,100,0.04,RA,SKC,0.16,WeatherDisplay:10.37,2013-03-19 03:08:00,
2013-03-18 23:14:00,39.0,39.0,29.97,SSE,157,4.6,4.6,100,0.04,CLR,SKC,0.16,WeatherDisplay:10.37,2013-03-19 03:14:00,
2013-03-18 23:19:00,39.0,39.0,29.95,SE,135,5.8,5.8,100,0.03,,SKC,0.16,WeatherDisplay:10.37,2013-03-19 03:19:00,
2013-03-18 23:24:00,39.0,39.0,29.95,SSE,157,3.5,4.3,100,0.03,,SKC,0.17,WeatherDisplay:10.37,2013-03-19 03:24:00,
2013-03-18 23:29:00,39.0,39.0,29.95,South,180,4.0,4.0,100,0.03,RA,SKC,0.17,WeatherDisplay:10.37,2013-03-19 03:29:00,
2013-03-18 23:34:00,39.0,39.0,29.95,SSE,157,6.0,6.0,100,0.03,RA,SKC,0.17,WeatherDisplay:10.37,2013-03-19 03:34:00,
2013-03-18 23:39:00,39.0,39.0,29.93,South,180,8.0,8.0,100,0.03,CLR,SKC,0.17,WeatherDisplay:10.37,2013-03-19 03:39:00,
2013-03-18 23:44:00,39.0,39.0,29.93,SSE,157,10.4,10.4,100,0.04,RA,SKC,0.18,WeatherDisplay:10.37,2013-03-19 03:44:00,
2013-03-18 23:49:00,39.0,39.0,29.91,SSE,157,11.5,11.5,100,0.03,RA,SKC,0.18,WeatherDisplay:10.37,2013-03-19 03:49:00,
2013-03-18 23:54:00,39.0,39.0,29.91,SSE,157,11.5,11.5,100,0.03,CLR,SKC,0.18,WeatherDisplay:10.37,2013-03-19 03:54:00,
2013-03-18 23:59:00,39.0,39.0,29.91,SSE,157,13.0,13.0,100,0.03,CLR,SKC,0.18,WeatherDisplay:10.37,2013-03-19 03:59:00,